createdAt,value
2018-07-26T00:00:15.641Z,14.13
2018-07-26T00:02:44.386Z,13.53
2018-07-26T00:05:13.113Z,14.33
2018-07-26T00:07:41.867Z,12.10
2018-07-26T00:10:10.611Z,14.07
2018-07-26T00:12:39.336Z,13.93
2018-07-26T00:15:08.913Z,15.37
2018-07-26T00:17:37.795Z,15.70
2018-07-26T00:20:07.085Z,18.00
2018-07-26T00:22:35.793Z,14.27
2018-07-26T00:25:04.540Z,13.40
2018-07-26T00:27:33.288Z,13.90
2018-07-26T00:30:02.008Z,12.73
2018-07-26T00:32:30.788Z,12.60
2018-07-26T00:34:59.499Z,12.00
2018-07-26T00:37:28.217Z,12.13
2018-07-26T00:39:56.954Z,13.57
2018-07-26T00:42:25.740Z,13.10
2018-07-26T00:44:54.537Z,15.60
2018-07-26T00:47:23.347Z,15.57
2018-07-26T00:49:52.099Z,15.10
2018-07-26T00:52:20.823Z,17.70
2018-07-26T00:54:49.562Z,15.80
2018-07-26T00:57:18.393Z,13.03
2018-07-26T00:59:47.121Z,12.07
2018-07-26T01:02:15.869Z,12.20
2018-07-26T01:04:44.668Z,11.43
2018-07-26T01:07:13.398Z,11.30
2018-07-26T01:09:42.216Z,11.60
2018-07-26T01:12:10.904Z,10.90
2018-07-26T01:14:39.618Z,11.90
2018-07-26T01:17:08.379Z,12.07
2018-07-26T01:19:37.140Z,11.83
2018-07-26T01:22:06.477Z,13.40
2018-07-26T01:24:35.259Z,14.53
2018-07-26T01:27:04.105Z,14.30
2018-07-26T01:29:33.031Z,13.53
2018-07-26T01:32:01.731Z,14.37
2018-07-26T01:34:30.441Z,12.70
2018-07-26T01:36:59.145Z,17.00
2018-07-26T01:39:27.866Z,14.00
2018-07-26T01:41:56.674Z,11.60
2018-07-26T01:44:26.297Z,11.67
2018-07-26T01:46:55.014Z,11.57
2018-07-26T01:49:23.729Z,9.20
2018-07-26T01:51:52.453Z,20.60
2018-07-26T01:54:21.199Z,32.97
2018-07-26T01:56:49.955Z,30.83
2018-07-26T01:59:18.679Z,28.10
2018-07-26T02:01:47.448Z,28.20
2018-07-26T02:04:16.166Z,18.87
2018-07-26T02:06:44.950Z,11.30
2018-07-26T02:09:13.723Z,12.50
2018-07-26T02:11:42.470Z,17.20
2018-07-26T02:14:16.181Z,10.90
2018-07-26T02:16:44.898Z,10.63
2018-07-26T02:19:13.678Z,10.77
2018-07-26T02:21:42.397Z,10.60
2018-07-26T02:24:11.102Z,11.23
2018-07-26T02:26:39.824Z,10.00
2018-07-26T02:29:08.605Z,23.10
2018-07-26T02:31:37.342Z,21.40
2018-07-26T02:34:06.150Z,18.97
2018-07-26T02:36:35.071Z,25.90
2018-07-26T02:39:03.950Z,35.17
2018-07-26T02:41:32.687Z,18.10
2018-07-26T02:44:01.445Z,23.63
2018-07-26T02:46:30.213Z,23.77
2018-07-26T02:48:58.955Z,20.00
2018-07-26T02:51:27.677Z,18.83
2018-07-26T02:53:56.381Z,10.50
2018-07-26T02:56:25.150Z,16.10
2018-07-26T02:58:53.869Z,9.70
2018-07-26T03:01:22.781Z,8.40
2018-07-26T03:03:51.546Z,10.53
2018-07-26T03:06:20.255Z,11.40
2018-07-26T03:08:48.985Z,9.00
2018-07-26T03:11:17.737Z,11.13
2018-07-26T03:13:46.461Z,10.30
2018-07-26T03:16:15.197Z,15.03
2018-07-26T03:18:43.915Z,12.50
2018-07-26T03:21:12.638Z,9.77
2018-07-26T03:23:41.371Z,10.20
2018-07-26T03:26:10.091Z,9.77
2018-07-26T03:28:38.833Z,13.90
2018-07-26T03:31:08.200Z,10.43
2018-07-26T03:33:36.948Z,11.37
2018-07-26T03:36:05.666Z,12.50
2018-07-26T03:38:34.401Z,17.77
2018-07-26T03:41:03.199Z,14.70
2018-07-26T03:43:31.989Z,13.17
2018-07-26T03:46:00.720Z,15.90
2018-07-26T03:48:29.649Z,18.40
2018-07-26T03:50:58.408Z,27.80
2018-07-26T03:53:27.220Z,20.50
2018-07-26T03:55:56.499Z,14.67
2018-07-26T03:58:25.244Z,13.23
2018-07-26T04:00:53.971Z,13.80
2018-07-26T04:03:22.777Z,18.50
2018-07-26T04:05:51.487Z,19.23
2018-07-26T04:08:20.224Z,18.83
2018-07-26T04:10:48.944Z,16.90
2018-07-26T04:13:17.688Z,10.97
2018-07-26T04:15:46.418Z,10.33
2018-07-26T04:18:15.181Z,10.60
2018-07-26T04:20:43.913Z,10.77
2018-07-26T04:23:12.620Z,9.13
2018-07-26T04:25:41.341Z,9.90
2018-07-26T04:28:10.234Z,9.03
2018-07-26T04:30:39.001Z,8.23
2018-07-26T04:33:07.874Z,7.43
2018-07-26T04:35:36.811Z,7.67
2018-07-26T04:38:05.572Z,10.40
2018-07-26T04:40:35.221Z,11.40
2018-07-26T04:43:04.051Z,12.33
2018-07-26T04:45:32.909Z,10.77
2018-07-26T04:48:01.633Z,9.03
2018-07-26T04:50:30.343Z,9.60
2018-07-26T04:52:59.039Z,9.20
2018-07-26T04:55:27.770Z,9.27
2018-07-26T04:57:56.469Z,7.40
2018-07-26T05:00:25.182Z,7.27
2018-07-26T05:02:53.914Z,8.67
2018-07-26T05:05:22.850Z,7.30
2018-07-26T05:07:51.569Z,7.63
2018-07-26T05:10:20.578Z,8.60
2018-07-26T05:12:49.265Z,8.73
2018-07-26T05:15:17.974Z,8.53
2018-07-26T05:17:46.776Z,8.40
2018-07-26T05:20:15.516Z,8.20
2018-07-26T05:22:44.202Z,6.80
2018-07-26T05:25:12.922Z,12.17
2018-07-26T05:27:41.750Z,8.67
2018-07-26T05:30:10.505Z,14.70
2018-07-26T05:32:39.425Z,12.63
2018-07-26T05:35:08.195Z,8.13
2018-07-26T05:37:36.993Z,7.93
2018-07-26T05:40:06.166Z,7.23
2018-07-26T05:42:34.906Z,8.37
2018-07-26T05:45:03.665Z,5.43
2018-07-26T05:47:33.271Z,6.47
2018-07-26T05:50:02.880Z,7.50
2018-07-26T05:52:31.955Z,7.40
2018-07-26T05:55:01.255Z,7.03
2018-07-26T05:57:31.046Z,6.83
2018-07-26T06:00:00.089Z,7.07
2018-07-26T06:02:31.394Z,5.73
2018-07-26T06:05:00.458Z,5.00
2018-07-26T06:07:29.272Z,5.10
2018-07-26T06:09:58.458Z,6.33
2018-07-26T06:12:27.358Z,6.43
2018-07-26T06:14:56.492Z,4.83
2018-07-26T06:17:25.411Z,5.60
2018-07-26T06:19:54.438Z,4.80
2018-07-26T06:22:23.622Z,5.60
2018-07-26T06:24:52.333Z,4.80
2018-07-26T06:27:21.168Z,5.50
2018-07-26T06:29:49.877Z,6.57
2018-07-26T06:32:18.585Z,4.30
2018-07-26T06:34:47.316Z,4.27
2018-07-26T06:37:16.243Z,4.37
2018-07-26T06:39:45.011Z,4.20
2018-07-26T06:42:13.726Z,3.37
2018-07-26T06:44:42.476Z,3.90
2018-07-26T06:47:11.286Z,4.00
2018-07-26T06:49:40.093Z,3.30
2018-07-26T06:52:08.878Z,4.23
2018-07-26T06:54:37.598Z,7.20
2018-07-26T06:57:06.297Z,4.20
2018-07-26T06:59:35.037Z,3.97
2018-07-26T07:02:03.805Z,5.10
2018-07-26T07:04:32.489Z,4.87
2018-07-26T07:07:01.206Z,5.27
2018-07-26T07:09:29.910Z,4.03
2018-07-26T07:11:58.716Z,3.90
2018-07-26T07:14:27.406Z,3.60
2018-07-26T07:16:56.135Z,5.10
2018-07-26T07:19:24.989Z,4.70
2018-07-26T07:21:53.683Z,3.73
2018-07-26T07:24:23.342Z,3.33
2018-07-26T07:26:53.369Z,3.80
2018-07-26T07:29:22.665Z,3.77
2018-07-26T07:31:51.373Z,3.97
2018-07-26T07:34:20.057Z,4.13
2018-07-26T07:36:48.766Z,4.33
2018-07-26T07:39:17.473Z,3.50
2018-07-26T07:41:46.413Z,3.55
2018-07-26T07:44:15.136Z,3.45
2018-07-26T07:46:43.889Z,3.10
2018-07-26T07:49:12.585Z,2.83
2018-07-26T07:51:41.343Z,2.90
2018-07-26T07:54:10.065Z,2.12
2018-07-26T07:56:38.761Z,2.67
2018-07-26T07:59:07.473Z,2.65
2018-07-26T08:01:36.174Z,2.40
2018-07-26T08:04:04.990Z,2.90
2018-07-26T08:06:33.734Z,2.87
2018-07-26T08:09:02.456Z,2.98
2018-07-26T08:11:31.165Z,3.12
2018-07-26T08:13:59.872Z,3.20
2018-07-26T08:16:28.564Z,2.55
2018-07-26T08:18:57.302Z,2.77
2018-07-26T08:21:26.028Z,3.10
2018-07-26T08:23:54.736Z,2.60
2018-07-26T08:26:23.577Z,3.60
2018-07-26T08:28:52.460Z,2.60
2018-07-26T08:31:21.200Z,3.30
2018-07-26T08:33:49.936Z,3.63
2018-07-26T08:36:18.681Z,3.23
2018-07-26T08:38:47.429Z,3.77
2018-07-26T08:41:16.227Z,2.97
2018-07-26T08:43:44.988Z,2.97
2018-07-26T08:46:13.724Z,3.00
2018-07-26T08:48:42.421Z,3.60
2018-07-26T08:51:11.101Z,3.73
2018-07-26T08:53:39.794Z,3.25
2018-07-26T08:56:08.572Z,3.25
2018-07-26T08:58:37.432Z,3.42
2018-07-26T09:01:06.525Z,3.10
2018-07-26T09:03:35.217Z,2.80
2018-07-26T09:06:03.909Z,3.52
2018-07-26T09:08:32.624Z,3.27
2018-07-26T09:11:01.390Z,2.83
2018-07-26T09:13:30.387Z,2.67
2018-07-26T09:15:59.091Z,2.72
2018-07-26T09:18:27.801Z,3.25
2018-07-26T09:20:56.520Z,3.67
2018-07-26T09:23:25.226Z,3.35
2018-07-26T09:25:53.939Z,3.50
2018-07-26T09:28:22.660Z,3.17
2018-07-26T09:30:51.387Z,2.83
2018-07-26T09:33:20.127Z,3.15
2018-07-26T09:35:48.886Z,3.02
2018-07-26T09:38:17.597Z,3.08
2018-07-26T09:40:46.509Z,3.25
2018-07-26T09:43:15.390Z,3.30
2018-07-26T09:45:44.134Z,3.92
2018-07-26T09:48:12.824Z,3.33
2018-07-26T09:50:41.558Z,3.33
2018-07-26T09:53:10.274Z,3.37
2018-07-26T09:55:38.990Z,3.33
2018-07-26T09:58:07.700Z,3.65
2018-07-26T10:00:41.567Z,2.40
2018-07-26T10:03:19.333Z,3.08
2018-07-26T10:05:48.067Z,3.95
2018-07-26T10:08:16.775Z,3.12
2018-07-26T10:10:45.558Z,2.90
2018-07-26T10:13:14.257Z,3.15
2018-07-26T10:15:42.993Z,3.00
2018-07-26T10:18:11.692Z,3.25
2018-07-26T10:20:40.428Z,3.85
2018-07-26T10:23:09.543Z,3.17
2018-07-26T10:25:38.236Z,3.62
2018-07-26T10:28:07.299Z,3.87
2018-07-26T10:30:36.066Z,3.10
2018-07-26T10:33:04.869Z,3.70
2018-07-26T10:35:33.759Z,3.55
2018-07-26T10:38:02.483Z,3.22
2018-07-26T10:40:31.262Z,3.47
2018-07-26T10:42:59.982Z,3.20
2018-07-26T10:45:28.693Z,18.87
2018-07-26T10:47:57.545Z,5.55
2018-07-26T10:50:26.273Z,11.33
2018-07-26T10:52:55.013Z,5.00
2018-07-26T10:55:23.756Z,3.87
2018-07-26T10:57:52.508Z,3.90
2018-07-26T11:00:21.306Z,3.22
2018-07-26T11:02:50.092Z,3.25
2018-07-26T11:05:18.790Z,3.30
2018-07-26T11:07:47.489Z,3.20
2018-07-26T11:10:16.361Z,3.80
2018-07-26T11:12:45.540Z,4.33
2018-07-26T11:15:29.445Z,3.07
2018-07-26T11:17:58.389Z,4.90
2018-07-26T11:20:27.165Z,4.17
2018-07-26T11:22:55.886Z,4.60
2018-07-26T11:25:24.582Z,3.30
2018-07-26T11:27:53.663Z,4.03
2018-07-26T11:30:22.638Z,3.63
2018-07-26T11:32:51.351Z,3.40
2018-07-26T11:35:20.063Z,3.02
2018-07-26T11:37:48.861Z,2.67
2018-07-26T11:40:17.573Z,3.37
2018-07-26T11:42:46.330Z,3.83
2018-07-26T11:45:15.050Z,2.87
2018-07-26T11:47:43.801Z,2.60
2018-07-26T11:50:13.130Z,3.17
2018-07-26T11:52:41.862Z,3.17
2018-07-26T11:55:10.581Z,3.42
2018-07-26T11:57:39.277Z,3.00
2018-07-26T12:00:08.845Z,3.00
2018-07-26T12:02:37.544Z,2.58
2018-07-26T12:05:06.276Z,2.40
2018-07-26T12:07:35.193Z,2.60
2018-07-26T12:10:03.915Z,1.92
2018-07-26T12:12:32.597Z,3.15
2018-07-26T12:15:01.282Z,3.20
2018-07-26T12:17:29.974Z,3.58
2018-07-26T12:19:58.659Z,3.20
2018-07-26T12:22:27.478Z,3.10
2018-07-26T12:24:56.169Z,3.87
2018-07-26T12:27:24.865Z,3.30
2018-07-26T12:29:53.564Z,2.52
2018-07-26T12:32:22.246Z,2.55
2018-07-26T12:34:50.932Z,3.05
2018-07-26T12:37:19.615Z,3.52
2018-07-26T12:39:48.334Z,2.85
2018-07-26T12:42:17.068Z,3.45
2018-07-26T12:44:45.764Z,3.77
2018-07-26T12:47:14.549Z,3.90
2018-07-26T12:49:43.241Z,3.15
2018-07-26T12:52:16.254Z,3.83
2018-07-26T12:54:45.043Z,3.77
2018-07-26T12:57:13.753Z,3.00
2018-07-26T12:59:42.465Z,3.90
2018-07-26T13:02:11.885Z,3.90
2018-07-26T13:04:40.752Z,4.40
2018-07-26T13:07:09.476Z,4.50
2018-07-26T13:09:38.274Z,4.53
2018-07-26T13:12:07.019Z,3.73
2018-07-26T13:14:35.842Z,4.83
2018-07-26T13:17:04.651Z,4.10
2018-07-26T13:19:33.442Z,4.37
2018-07-26T13:22:02.224Z,3.93
2018-07-26T13:24:30.968Z,4.37
2018-07-26T13:26:59.704Z,4.10
2018-07-26T13:29:28.397Z,3.43
2018-07-26T13:31:57.094Z,4.97
2018-07-26T13:34:25.935Z,4.60
2018-07-26T13:36:54.732Z,4.03
2018-07-26T13:39:23.582Z,5.40
2018-07-26T13:41:52.272Z,4.17
2018-07-26T13:44:21.209Z,3.60
2018-07-26T13:46:49.958Z,3.60
2018-07-26T13:49:18.716Z,3.87
2018-07-26T13:51:47.424Z,5.17
2018-07-26T13:54:16.285Z,6.13
2018-07-26T13:56:44.973Z,4.40
2018-07-26T13:59:13.656Z,4.47
2018-07-26T14:01:42.381Z,4.60
2018-07-26T14:04:11.093Z,4.30
2018-07-26T14:06:39.821Z,4.80
2018-07-26T14:09:10.311Z,5.27
2018-07-26T14:11:39.085Z,6.17
2018-07-26T14:14:08.013Z,5.73
2018-07-26T14:16:36.764Z,5.00
2018-07-26T14:19:06.082Z,5.27
2018-07-26T14:21:34.873Z,5.50
2018-07-26T14:24:04.507Z,6.20
2018-07-26T14:26:33.225Z,5.60
2018-07-26T14:29:01.954Z,4.87
2018-07-26T14:31:30.707Z,5.03
2018-07-26T14:33:59.394Z,6.30
2018-07-26T14:36:28.194Z,5.60
2018-07-26T14:38:56.897Z,5.77
2018-07-26T14:41:25.596Z,6.10
2018-07-26T14:43:54.356Z,4.97
2018-07-26T14:46:23.149Z,6.13
2018-07-26T14:48:51.957Z,5.77
2018-07-26T14:51:20.766Z,6.00
2018-07-26T14:53:49.524Z,6.20
2018-07-26T14:56:18.288Z,7.27
2018-07-26T14:58:47.113Z,6.27
2018-07-26T15:01:15.858Z,5.77
2018-07-26T15:03:44.612Z,5.50
2018-07-26T15:06:13.453Z,6.03
2018-07-26T15:08:42.275Z,6.30
2018-07-26T15:11:11.055Z,6.00
2018-07-26T15:13:39.787Z,4.37
2018-07-26T15:16:08.505Z,5.00
2018-07-26T15:18:37.218Z,5.93
2018-07-26T15:21:05.980Z,6.47
2018-07-26T15:23:34.714Z,6.63
2018-07-26T15:26:03.442Z,6.93
2018-07-26T15:28:32.141Z,6.30
2018-07-26T15:31:00.954Z,7.40
2018-07-26T15:33:29.785Z,7.53
2018-07-26T15:35:58.505Z,7.90
2018-07-26T15:38:27.246Z,6.90
2018-07-26T15:40:56.025Z,7.33
2018-07-26T15:43:24.849Z,7.37
2018-07-26T15:45:53.750Z,7.37
2018-07-26T15:48:22.479Z,8.03
2018-07-26T15:50:51.227Z,8.30
2018-07-26T15:53:19.990Z,8.93
2018-07-26T15:55:48.886Z,7.80
2018-07-26T15:58:17.657Z,9.70
2018-07-26T16:00:46.464Z,7.30
2018-07-26T16:03:15.248Z,7.63
2018-07-26T16:05:44.129Z,6.60
2018-07-26T16:08:12.867Z,7.30
2018-07-26T16:10:41.810Z,7.20
2018-07-26T16:13:10.540Z,6.87
2018-07-26T16:15:39.253Z,6.20
2018-07-26T16:18:08.059Z,6.57
2018-07-26T16:20:36.762Z,6.67
2018-07-26T16:23:05.577Z,5.73
2018-07-26T16:25:34.628Z,7.07
2018-07-26T16:28:03.596Z,6.30
2018-07-26T16:30:32.922Z,5.30
2018-07-26T16:33:02.148Z,9.50
2018-07-26T16:35:31.490Z,5.20
2018-07-26T16:38:00.563Z,5.23
2018-07-26T16:40:29.705Z,6.83
2018-07-26T16:42:58.930Z,5.90
2018-07-26T16:45:28.173Z,6.87
2018-07-26T16:47:57.309Z,7.80
2018-07-26T16:50:26.530Z,8.27
2018-07-26T16:52:55.807Z,6.40
2018-07-26T16:55:25.149Z,6.33
2018-07-26T16:57:54.339Z,8.30
2018-07-26T17:00:23.430Z,7.67
2018-07-26T17:02:52.573Z,7.70
2018-07-26T17:05:21.810Z,7.87
2018-07-26T17:07:51.024Z,7.17
2018-07-26T17:10:20.286Z,7.43
2018-07-26T17:12:49.631Z,8.33
2018-07-26T17:15:18.826Z,8.33
2018-07-26T17:17:47.998Z,8.73
2018-07-26T17:20:17.040Z,9.77
2018-07-26T17:22:46.002Z,9.80
2018-07-26T17:25:15.281Z,9.87
2018-07-26T17:27:44.627Z,9.17
2018-07-26T17:30:13.776Z,11.33
2018-07-26T17:32:42.985Z,9.20
2018-07-26T17:35:11.982Z,8.10
2018-07-26T17:37:41.197Z,7.90
2018-07-26T17:40:10.297Z,8.37
2018-07-26T17:42:39.757Z,8.27
2018-07-26T17:45:10.138Z,8.30
2018-07-26T17:47:39.496Z,8.93
2018-07-26T17:50:09.984Z,8.50
2018-07-26T17:52:39.226Z,9.30
2018-07-26T17:55:08.784Z,8.57
2018-07-26T17:57:38.340Z,8.50
2018-07-26T18:00:09.955Z,8.00
2018-07-26T18:02:39.275Z,8.60
2018-07-26T18:05:08.972Z,10.03
2018-07-26T18:07:38.086Z,8.30
2018-07-26T18:10:07.829Z,8.17
2018-07-26T18:12:37.214Z,9.23
2018-07-26T18:15:07.431Z,9.57
2018-07-26T18:17:36.764Z,8.43
2018-07-26T18:20:06.380Z,9.27
2018-07-26T18:22:35.439Z,7.77
2018-07-26T18:25:04.449Z,8.37
2018-07-26T18:27:33.709Z,8.67
2018-07-26T18:30:03.047Z,8.90
2018-07-26T18:32:32.375Z,9.50
2018-07-26T18:35:01.561Z,9.90
2018-07-26T18:37:30.762Z,9.40
2018-07-26T18:39:59.981Z,9.67
2018-07-26T18:42:29.261Z,15.67
2018-07-26T18:44:58.314Z,12.93
2018-07-26T18:47:27.565Z,15.83
2018-07-26T18:49:56.869Z,71.33
2018-07-26T18:52:25.972Z,69.37
2018-07-26T18:54:55.228Z,40.53
2018-07-26T18:57:24.552Z,41.20
2018-07-26T18:59:53.843Z,40.43
2018-07-26T19:02:23.137Z,10.30
2018-07-26T19:04:52.346Z,8.40
2018-07-26T19:07:21.309Z,8.60
2018-07-26T19:09:50.470Z,7.70
2018-07-26T19:12:19.620Z,10.53
2018-07-26T19:14:48.793Z,18.70
2018-07-26T19:17:18.156Z,9.03
2018-07-26T19:19:47.220Z,7.43
2018-07-26T19:22:16.314Z,8.13
2018-07-26T19:24:45.437Z,9.57
2018-07-26T19:27:14.705Z,10.10
2018-07-26T19:29:44.051Z,9.20
2018-07-26T19:32:13.208Z,9.10
2018-07-26T19:34:42.329Z,11.73
2018-07-26T19:37:11.540Z,10.40
2018-07-26T19:39:40.708Z,9.17
2018-07-26T19:42:09.889Z,15.70
2018-07-26T19:44:39.009Z,14.00
2018-07-26T19:47:08.236Z,14.60
2018-07-26T19:49:37.492Z,12.90
2018-07-26T19:52:06.593Z,10.50
2018-07-26T19:54:35.789Z,11.67
2018-07-26T19:57:05.036Z,14.60
2018-07-26T19:59:34.381Z,14.20
2018-07-26T20:02:03.769Z,12.50
2018-07-26T20:04:32.936Z,12.10
2018-07-26T20:07:02.081Z,13.70
2018-07-26T20:09:31.325Z,15.60
2018-07-26T20:12:00.545Z,16.00
2018-07-26T20:14:29.794Z,14.27
2018-07-26T20:16:59.152Z,16.07
2018-07-26T20:19:28.278Z,14.03
2018-07-26T20:21:57.513Z,16.57
2018-07-26T20:24:26.756Z,16.23
2018-07-26T20:26:56.060Z,18.97
2018-07-26T20:29:24.831Z,19.20
2018-07-26T20:31:53.631Z,15.23
2018-07-26T20:34:22.424Z,16.50
2018-07-26T20:36:51.336Z,16.90
2018-07-26T20:39:20.122Z,17.47
2018-07-26T20:41:48.899Z,17.33
2018-07-26T20:44:17.654Z,16.80
2018-07-26T20:46:46.442Z,17.30
2018-07-26T20:49:15.235Z,21.53
2018-07-26T20:51:44.240Z,20.80
2018-07-26T20:54:13.061Z,21.13
2018-07-26T20:56:41.817Z,20.47
2018-07-26T20:59:10.617Z,15.73
2018-07-26T21:01:39.382Z,16.37
2018-07-26T21:04:08.171Z,18.90
2018-07-26T21:06:36.973Z,15.30
2018-07-26T21:09:09.529Z,15.93
2018-07-26T21:11:38.401Z,15.70
2018-07-26T21:14:07.214Z,16.47
2018-07-26T21:16:35.937Z,18.50
2018-07-26T21:19:04.816Z,17.67
2018-07-26T21:21:33.862Z,17.17
2018-07-26T21:24:02.698Z,15.40
2018-07-26T21:26:31.405Z,14.13
2018-07-26T21:29:00.181Z,16.50
2018-07-26T21:31:29.152Z,14.60
2018-07-26T21:33:58.015Z,17.37
2018-07-26T21:36:26.751Z,19.73
2018-07-26T21:38:55.526Z,17.13
2018-07-26T21:41:24.571Z,17.37
2018-07-26T21:43:53.431Z,16.67
2018-07-26T21:46:22.152Z,19.10
2018-07-26T21:48:50.940Z,18.47
2018-07-26T21:51:19.731Z,22.00
2018-07-26T21:53:48.515Z,21.37
2018-07-26T21:56:17.393Z,20.97
2018-07-26T21:58:46.148Z,24.30
2018-07-26T22:01:14.932Z,22.80
2018-07-26T22:03:43.645Z,21.13
2018-07-26T22:06:12.408Z,20.30
2018-07-26T22:08:41.229Z,20.40
2018-07-26T22:11:09.940Z,20.73
2018-07-26T22:13:38.793Z,18.00
2018-07-26T22:16:07.540Z,19.73
2018-07-26T22:18:36.387Z,17.20
2018-07-26T22:21:05.082Z,18.40
2018-07-26T22:23:33.790Z,16.53
2018-07-26T22:26:02.556Z,16.47
2018-07-26T22:28:31.325Z,17.97
2018-07-26T22:31:00.101Z,22.13
2018-07-26T22:33:28.856Z,24.27
2018-07-26T22:35:57.595Z,26.83
2018-07-26T22:38:26.505Z,33.10
2018-07-26T22:40:55.269Z,29.30
2018-07-26T22:43:24.061Z,32.50
2018-07-26T22:45:52.974Z,29.10
2018-07-26T22:48:21.737Z,25.93
2018-07-26T22:50:50.505Z,24.83
2018-07-26T22:53:19.255Z,23.70
2018-07-26T22:55:48.029Z,24.03
2018-07-26T22:58:16.794Z,30.90
2018-07-26T23:00:45.541Z,36.63
2018-07-26T23:03:14.308Z,24.83
2018-07-26T23:05:43.055Z,24.20
2018-07-26T23:08:11.825Z,29.50
2018-07-26T23:10:40.553Z,24.43
2018-07-26T23:13:09.322Z,27.93
2018-07-26T23:15:38.054Z,24.23
2018-07-26T23:18:06.781Z,20.80
2018-07-26T23:20:35.557Z,22.23
2018-07-26T23:23:04.288Z,22.80
2018-07-26T23:25:33.041Z,19.90
2018-07-26T23:28:01.790Z,19.50
2018-07-26T23:30:30.514Z,19.73
2018-07-26T23:32:59.302Z,17.63
2018-07-26T23:35:28.026Z,16.70
2018-07-26T23:37:56.777Z,14.40
2018-07-26T23:40:25.507Z,13.20
2018-07-26T23:42:54.209Z,14.50
2018-07-26T23:45:22.975Z,13.97
2018-07-26T23:47:51.687Z,14.57
2018-07-26T23:50:20.380Z,13.77
2018-07-26T23:52:49.096Z,13.73
2018-07-26T23:55:17.851Z,15.20
2018-07-26T23:57:46.608Z,14.40
